Time;durP1;ratioP1;P1;durP2;ratioP2;P2;SDS_P1;SDS_P2;PMS_P1;PMS_P2;Temp;Humidity;BMP_temperature;BMP_pressure;BME280_temperature;BME280_humidity;BME280_pressure;Samples;Min_cycle;Max_cycle;Signal;HPM_P1;HPM_P2
2024/03/18 00:00:23;;;;;;;9.75;5.88;;;7.00;99.90;;;;;;5098815;27;20109;-62
2024/03/18 00:03:09;;;;;;;9.75;5.13;;;7.00;99.90;;;;;;5097818;28;20403;-62
2024/03/18 00:05:56;;;;;;;11.18;5.50;;;7.00;99.90;;;;;;5095930;28;20043;-62
2024/03/18 00:08:42;;;;;;;9.45;5.75;;;6.90;99.90;;;;;;5096923;28;20504;-62
2024/03/18 00:11:28;;;;;;;14.30;5.72;;;7.00;99.90;;;;;;5096388;28;20026;-63
2024/03/18 00:14:14;;;;;;;10.98;5.45;;;7.00;99.90;;;;;;5095428;28;20172;-62
2024/03/18 00:17:00;;;;;;;10.50;5.32;;;7.00;99.90;;;;;;5093569;28;20032;-62
2024/03/18 00:19:45;;;;;;;8.52;4.45;;;7.00;99.90;;;;;;5085397;28;20028;-62
2024/03/18 00:22:32;;;;;;;13.68;6.75;;;6.90;99.90;;;;;;5086121;28;20072;-63
2024/03/18 00:25:18;;;;;;;10.00;6.07;;;6.90;99.90;;;;;;5083246;28;20071;-62
2024/03/18 00:28:04;;;;;;;13.82;7.10;;;6.90;99.90;;;;;;5084153;28;20036;-62
2024/03/18 00:30:50;;;;;;;7.22;4.18;;;6.80;99.90;;;;;;5081643;28;20107;-62
2024/03/18 00:33:36;;;;;;;9.68;5.57;;;6.80;99.90;;;;;;5086880;28;20048;-62
2024/03/18 00:36:22;;;;;;;11.60;5.80;;;6.80;99.90;;;;;;5082199;28;20048;-62
2024/03/18 00:39:08;;;;;;;8.67;5.57;;;6.80;99.90;;;;;;5084102;28;20323;-62
2024/03/18 00:41:58;;;;;;;14.07;5.55;;;6.70;99.90;;;;;;5084803;28;20690;-62
2024/03/18 00:44:44;;;;;;;11.15;5.90;;;6.70;99.90;;;;;;5084502;28;20118;-62
2024/03/18 00:47:29;;;;;;;10.77;5.53;;;6.70;99.90;;;;;;5083231;28;20096;-62
2024/03/18 00:50:17;;;;;;;10.80;5.10;;;6.70;99.90;;;;;;5080548;28;20195;-62
2024/03/18 00:53:03;;;;;;;9.27;5.80;;;6.70;99.90;;;;;;5082650;28;20369;-62
2024/03/18 00:55:49;;;;;;;14.93;5.83;;;6.70;99.90;;;;;;5082663;28;20032;-62
2024/03/18 00:58:35;;;;;;;10.40;5.78;;;6.80;99.90;;;;;;5084092;28;20036;-62
2024/03/18 01:01:21;;;;;;;11.13;6.60;;;6.80;99.90;;;;;;5080576;28;20603;-62
2024/03/18 01:04:07;;;;;;;15.85;6.50;;;6.80;99.90;;;;;;5083969;28;20032;-62
2024/03/18 01:06:53;;;;;;;12.95;6.43;;;6.80;99.90;;;;;;5079790;28;20043;-62
2024/03/18 01:09:41;;;;;;;12.98;8.35;;;6.80;99.90;;;;;;5081137;28;20046;-62
2024/03/18 01:12:26;;;;;;;15.15;7.93;;;6.80;99.90;;;;;;5081092;28;20499;-62
2024/03/18 01:15:14;;;;;;;13.93;7.18;;;6.80;99.90;;;;;;5081525;28;20039;-62
2024/03/18 01:17:59;;;;;;;14.38;8.50;;;6.80;99.90;;;;;;5081998;28;20055;-62
2024/03/18 01:20:45;;;;;;;13.05;7.78;;;6.90;99.90;;;;;;5082818;28;20420;-62
2024/03/18 01:23:31;;;;;;;15.20;7.80;;;6.90;99.90;;;;;;5083622;28;20040;-62
2024/03/18 01:26:18;;;;;;;14.52;6.93;;;6.90;99.90;;;;;;5081863;28;20031;-62
2024/03/18 01:29:05;;;;;;;13.82;7.22;;;7.00;99.90;;;;;;5081977;28;20111;-62
2024/03/18 01:31:51;;;;;;;;;;;6.90;99.90;;;;;;5082676;28;20032;-62
2024/03/18 01:34:38;;;;;;;13.75;6.35;;;6.90;99.90;;;;;;5083667;28;20396;-62
2024/03/18 01:37:23;;;;;;;9.85;5.82;;;6.80;99.90;;;;;;5081848;28;20040;-62
2024/03/18 01:40:13;;;;;;;9.73;6.18;;;6.80;99.90;;;;;;5081049;28;20028;-62
2024/03/18 01:42:59;;;;;;;10.52;5.97;;;6.80;99.90;;;;;;5097663;27;20036;-62
2024/03/18 01:45:46;;;;;;;11.57;5.47;;;6.90;99.90;;;;;;5079881;28;20098;-62
2024/03/18 01:48:31;;;;;;;;;;;6.90;99.90;;;;;;5079057;28;20093;-62
2024/03/18 01:51:18;;;;;;;11.27;5.20;;;6.90;99.90;;;;;;5081666;28;20439;-62
2024/03/18 01:54:05;;;;;;;11.27;4.90;;;6.90;99.90;;;;;;5081763;28;20024;-62
2024/03/18 01:56:51;;;;;;;12.50;5.68;;;6.90;99.90;;;;;;5080888;28;20088;-63
2024/03/18 01:59:37;;;;;;;9.60;5.18;;;6.90;99.90;;;;;;5082849;28;20059;-62
2024/03/18 02:02:23;;;;;;;14.02;5.80;;;6.90;99.90;;;;;;5079869;28;20088;-62
2024/03/18 02:05:10;;;;;;;7.80;5.03;;;6.80;99.90;;;;;;5082155;28;20035;-63
2024/03/18 02:07:56;;;;;;;9.90;6.10;;;6.90;99.90;;;;;;5066723;28;20098;-62
2024/03/18 02:10:41;;;;;;;15.17;6.70;;;6.90;99.90;;;;;;5063280;28;20035;-62
2024/03/18 02:13:27;;;;;;;12.98;7.25;;;6.90;99.90;;;;;;5082549;28;20584;-62
2024/03/18 02:16:13;;;;;;;14.25;7.28;;;6.90;99.90;;;;;;5062213;28;20036;-62
2024/03/18 02:18:59;;;;;;;18.02;9.57;;;6.80;99.90;;;;;;5078911;28;20476;-62
2024/03/18 02:21:45;;;;;;;15.00;9.25;;;6.90;99.90;;;;;;5078273;28;20054;-62
2024/03/18 02:24:31;;;;;;;12.85;8.25;;;6.80;99.90;;;;;;5081391;28;20086;-62
2024/03/18 02:27:17;;;;;;;13.17;7.90;;;6.80;99.90;;;;;;5081163;28;20038;-62
2024/03/18 02:30:04;;;;;;;16.63;9.05;;;6.90;99.90;;;;;;5081016;28;20305;-63
2024/03/18 02:32:50;;;;;;;16.95;9.13;;;6.90;99.90;;;;;;5081640;28;20471;-62
2024/03/18 02:35:36;;;;;;;17.10;9.05;;;6.80;99.90;;;;;;5081525;28;20128;-62
2024/03/18 02:38:21;;;;;;;22.40;9.25;;;6.80;99.90;;;;;;5081933;28;20039;-63
2024/03/18 02:41:07;;;;;;;20.65;9.35;;;6.80;99.90;;;;;;5079603;28;20035;-63
2024/03/18 02:43:53;;;;;;;17.60;9.27;;;6.90;99.90;;;;;;5082464;28;20482;-63
2024/03/18 02:46:39;;;;;;;20.42;10.07;;;6.80;99.90;;;;;;5080397;28;20032;-62
2024/03/18 02:49:25;;;;;;;15.25;8.05;;;6.80;99.90;;;;;;5081008;28;20482;-63
2024/03/18 02:52:11;;;;;;;17.73;9.07;;;6.80;99.90;;;;;;5081872;28;20373;-62
2024/03/18 02:54:57;;;;;;;17.35;7.82;;;6.90;99.90;;;;;;5082564;28;20031;-62
2024/03/18 02:57:43;;;;;;;14.93;7.63;;;6.80;99.90;;;;;;5081008;28;20459;-62
2024/03/18 03:00:29;;;;;;;16.10;8.82;;;6.80;99.90;;;;;;5080161;28;20455;-62
2024/03/18 03:03:15;;;;;;;15.68;7.80;;;6.80;99.90;;;;;;5083076;28;20040;-62
2024/03/18 03:06:00;;;;;;;18.08;9.77;;;6.80;99.90;;;;;;5083978;28;20040;-62
2024/03/18 03:08:47;;;;;;;16.85;8.85;;;6.80;99.90;;;;;;5080565;28;20897;-62
2024/03/18 03:11:33;;;;;;;15.65;8.93;;;6.80;99.90;;;;;;5081262;28;20028;-62
2024/03/18 03:14:18;;;;;;;17.35;9.15;;;6.90;99.90;;;;;;5078675;28;20032;-61
2024/03/18 03:17:04;;;;;;;19.05;8.70;;;6.90;99.90;;;;;;5079380;28;20104;-61
2024/03/18 03:19:51;;;;;;;17.13;10.05;;;6.90;99.90;;;;;;5081982;28;20032;-61
2024/03/18 03:22:37;;;;;;;19.02;10.95;;;6.90;99.90;;;;;;5080371;28;20068;-61
2024/03/18 03:25:23;;;;;;;;;;;6.90;99.90;;;;;;5080729;28;20120;-61
2024/03/18 03:28:09;;;;;;;16.10;9.27;;;6.90;99.90;;;;;;5080382;28;20082;-61
2024/03/18 03:31:03;;;;;;;19.23;11.52;;;6.90;99.90;;;;;;5078226;28;20036;-61
2024/03/18 03:33:49;;;;;;;23.77;11.93;;;6.90;99.90;;;;;;5081107;28;20558;-60
2024/03/18 03:36:39;;;;;;;22.92;11.65;;;6.80;99.90;;;;;;5080489;28;20024;-60
2024/03/18 03:39:25;;;;;;;20.85;11.95;;;6.80;99.90;;;;;;5079374;28;20034;-60
2024/03/18 03:42:10;;;;;;;18.63;11.35;;;6.80;99.90;;;;;;5081163;28;20032;-61
2024/03/18 03:44:56;;;;;;;23.00;11.50;;;6.80;99.90;;;;;;5080493;28;20094;-61
2024/03/18 03:47:42;;;;;;;19.58;11.07;;;6.80;99.90;;;;;;5079408;28;20134;-61
2024/03/18 03:50:28;;;;;;;20.65;11.02;;;6.90;99.90;;;;;;5062072;28;21045;-60
2024/03/18 03:53:14;;;;;;;19.10;10.23;;;6.90;99.90;;;;;;5080382;28;20035;-61
2024/03/18 03:56:00;;;;;;;18.60;9.95;;;6.90;99.90;;;;;;5081687;28;20043;-61
2024/03/18 03:58:50;;;;;;;17.75;9.73;;;6.90;99.90;;;;;;5084369;28;20035;-61
2024/03/18 04:01:36;;;;;;;20.73;10.55;;;6.70;99.90;;;;;;5082648;28;20032;-61
2024/03/18 04:04:23;;;;;;;17.15;9.30;;;6.70;99.90;;;;;;5085319;28;20048;-61
2024/03/18 04:07:09;;;;;;;15.90;8.48;;;6.70;99.90;;;;;;5082602;28;20040;-61
2024/03/18 04:09:55;;;;;;;18.33;10.20;;;6.70;99.90;;;;;;5084133;28;20054;-61
2024/03/18 04:12:40;;;;;;;20.33;9.70;;;6.70;99.90;;;;;;5081169;28;20067;-61
2024/03/18 04:15:30;;;;;;;15.40;8.98;;;6.70;99.90;;;;;;5081911;28;20132;-59
2024/03/18 04:18:22;;;;;;;17.75;9.77;;;6.80;99.90;;;;;;5081789;28;20028;-61
2024/03/18 04:21:09;;;;;;;13.40;8.20;;;6.80;99.90;;;;;;5082790;28;20028;-61
2024/03/18 04:23:55;;;;;;;16.10;9.45;;;6.70;99.90;;;;;;5072164;28;20044;-61
2024/03/18 04:26:42;;;;;;;;;;;6.70;99.90;;;;;;5084485;28;20043;-61
2024/03/18 04:29:29;;;;;;;19.95;10.77;;;6.70;99.90;;;;;;5067210;28;19908;-61
2024/03/18 04:32:14;;;;;;;18.15;10.25;;;6.70;99.90;;;;;;5083836;28;20435;-61
2024/03/18 04:35:06;;;;;;;20.75;10.27;;;6.70;99.90;;;;;;5083997;28;20028;-61
2024/03/18 04:37:54;;;;;;;18.23;11.18;;;6.70;99.90;;;;;;5084778;28;20024;-61
2024/03/18 04:40:41;;;;;;;16.63;10.60;;;6.80;99.90;;;;;;5068301;28;20093;-61
2024/03/18 04:43:27;;;;;;;17.95;10.93;;;6.80;99.90;;;;;;5085620;28;20553;-62
2024/03/18 04:46:13;;;;;;;18.30;9.87;;;6.80;99.90;;;;;;5084260;28;20135;-61
2024/03/18 04:48:59;;;;;;;17.75;9.52;;;6.80;99.90;;;;;;5085850;28;20294;-61
2024/03/18 04:51:45;;;;;;;15.60;10.48;;;6.80;99.90;;;;;;5080802;28;20036;-61
2024/03/18 04:54:31;;;;;;;16.38;8.80;;;6.80;99.90;;;;;;5083997;28;20043;-61
2024/03/18 04:57:17;;;;;;;17.10;9.40;;;6.80;99.90;;;;;;5083483;28;20036;-61
2024/03/18 05:00:09;;;;;;;19.00;9.35;;;6.80;99.90;;;;;;5084525;28;20035;-62
2024/03/18 05:02:55;;;;;;;14.55;8.73;;;6.80;99.90;;;;;;5084184;28;20127;-61
2024/03/18 05:05:41;;;;;;;16.83;9.85;;;6.70;99.90;;;;;;5079283;28;20051;-61
2024/03/18 05:08:27;;;;;;;17.20;9.15;;;6.60;99.90;;;;;;5083851;28;20040;-61
2024/03/18 05:11:13;;;;;;;15.77;8.88;;;6.60;99.90;;;;;;5079229;28;20032;-61
2024/03/18 05:13:59;;;;;;;17.42;9.43;;;6.50;99.90;;;;;;5084915;28;20028;-61
2024/03/18 05:16:45;;;;;;;14.38;8.60;;;6.50;99.90;;;;;;5083123;28;20138;-61
2024/03/18 05:19:31;;;;;;;14.43;9.33;;;6.50;99.90;;;;;;5081581;28;20173;-61
2024/03/18 05:22:18;;;;;;;13.23;8.98;;;6.50;99.90;;;;;;5080044;28;20273;-61
2024/03/18 05:25:06;;;;;;;18.77;9.32;;;6.50;99.90;;;;;;5083800;28;20039;-61
2024/03/18 05:27:52;;;;;;;14.63;8.32;;;6.50;99.90;;;;;;5082297;28;20480;-61
2024/03/18 05:30:38;;;;;;;15.40;9.00;;;6.50;99.90;;;;;;5076001;28;20028;-61
2024/03/18 05:33:24;;;;;;;15.38;9.00;;;6.50;99.90;;;;;;5080965;28;20507;-62
2024/03/18 05:36:09;;;;;;;17.63;10.55;;;6.50;99.90;;;;;;5078336;28;20032;-61
2024/03/18 05:38:55;;;;;;;20.50;9.43;;;6.50;99.90;;;;;;5082009;28;20040;-63
2024/03/18 05:41:41;;;;;;;12.87;8.60;;;6.50;99.90;;;;;;5065884;28;20064;-61
2024/03/18 05:44:27;;;;;;;17.57;9.00;;;6.50;99.90;;;;;;5082801;28;20318;-61
2024/03/18 05:47:13;;;;;;;21.55;10.63;;;6.60;99.90;;;;;;5080898;28;20473;-61
2024/03/18 05:49:59;;;;;;;15.67;8.47;;;6.60;99.90;;;;;;5081137;28;20043;-61
2024/03/18 05:52:46;;;;;;;15.75;9.65;;;6.60;99.90;;;;;;5081648;28;20503;-61
2024/03/18 05:55:32;;;;;;;18.33;8.98;;;6.60;99.90;;;;;;5078476;28;20028;-61
2024/03/18 05:58:18;;;;;;;16.08;8.95;;;6.60;99.90;;;;;;5075623;28;20028;-61
2024/03/18 06:01:06;;;;;;;15.77;9.27;;;6.60;99.90;;;;;;5080281;28;20042;-62
2024/03/18 06:03:52;;;;;;;14.57;8.77;;;6.60;99.90;;;;;;5081110;28;20036;-61
2024/03/18 06:06:41;;;;;;;14.25;9.10;;;6.70;99.90;;;;;;5078121;28;20043;-62
2024/03/18 06:09:27;;;;;;;18.67;8.27;;;6.60;99.90;;;;;;5079770;28;20488;-61
2024/03/18 06:12:13;;;;;;;14.68;8.23;;;6.70;99.90;;;;;;5081099;28;20024;-61
2024/03/18 06:14:59;;;;;;;10.77;7.47;;;6.70;99.90;;;;;;5079891;28;20048;-61
2024/03/18 06:17:45;;;;;;;17.70;7.77;;;6.70;99.90;;;;;;5080922;28;20419;-61
2024/03/18 06:20:32;;;;;;;10.85;7.47;;;6.70;99.90;;;;;;5080590;28;20067;-61
2024/03/18 06:23:22;;;;;;;;;;;6.70;99.90;;;;;;5079560;28;20530;-61
2024/03/18 06:26:08;;;;;;;13.55;7.65;;;6.80;99.90;;;;;;5079128;28;20002;-61
2024/03/18 06:28:54;;;;;;;11.52;7.13;;;6.80;99.90;;;;;;5081375;28;20165;-61
2024/03/18 06:31:40;;;;;;;11.20;7.00;;;6.70;99.90;;;;;;5080008;28;20036;-61
2024/03/18 06:34:26;;;;;;;12.85;7.50;;;6.80;99.90;;;;;;5067391;28;20064;-61
2024/03/18 06:37:12;;;;;;;12.40;7.90;;;6.90;99.90;;;;;;5078436;28;20126;-61
2024/03/18 06:39:59;;;;;;;13.88;7.28;;;7.00;99.90;;;;;;5081960;28;20440;-61
2024/03/18 06:42:45;;;;;;;11.80;7.65;;;6.90;99.90;;;;;;5082405;28;20040;-62
2024/03/18 06:45:33;;;;;;;13.25;7.03;;;7.00;99.90;;;;;;5080306;28;20747;-62
2024/03/18 06:48:19;;;;;;;16.55;8.10;;;7.10;99.90;;;;;;5081943;28;20027;-62
2024/03/18 06:51:12;;;;;;;13.23;7.50;;;7.30;99.90;;;;;;5080005;28;20412;-62
2024/03/18 06:53:58;;;;;;;15.73;8.68;;;7.40;99.90;;;;;;5081492;28;20293;-62
2024/03/18 06:56:44;;;;;;;14.93;8.13;;;7.50;99.90;;;;;;5078744;28;20114;-62
2024/03/18 06:59:30;;;;;;;17.48;8.55;;;7.50;99.90;;;;;;5079416;28;20120;-62
2024/03/18 07:02:16;;;;;;;17.20;8.25;;;7.50;99.90;;;;;;5080173;28;20036;-62
2024/03/18 07:05:02;;;;;;;15.45;8.65;;;7.40;99.90;;;;;;5080067;28;20068;-62
2024/03/18 07:07:48;;;;;;;13.82;8.68;;;7.40;99.90;;;;;;5081077;28;20442;-62
2024/03/18 07:10:34;;;;;;;15.05;8.43;;;7.40;99.90;;;;;;5066437;28;20036;-62
2024/03/18 07:13:20;;;;;;;15.10;8.30;;;7.50;99.90;;;;;;5080990;28;20045;-62
2024/03/18 07:16:06;;;;;;;17.23;7.30;;;7.60;99.90;;;;;;5069937;28;20043;-62
2024/03/18 07:18:52;;;;;;;11.65;7.38;;;7.60;99.90;;;;;;5078326;28;20440;-62
2024/03/18 07:21:38;;;;;;;16.23;7.82;;;7.70;99.90;;;;;;5080081;28;20071;-62
2024/03/18 07:24:25;;;;;;;13.48;7.35;;;7.90;99.90;;;;;;5083759;28;20031;-62
2024/03/18 07:27:11;;;;;;;14.90;7.18;;;8.00;99.90;;;;;;5087444;28;20039;-62
2024/03/18 07:29:58;;;;;;;11.93;8.00;;;8.10;99.90;;;;;;5082940;28;20044;-62
2024/03/18 07:32:44;;;;;;;13.60;7.85;;;8.20;99.90;;;;;;5085435;28;20719;-62
2024/03/18 07:35:30;;;;;;;11.45;6.82;;;8.20;99.90;;;;;;5084593;28;20032;-65
2024/03/18 07:38:15;;;;;;;11.95;7.10;;;8.20;99.90;;;;;;5085436;28;20025;-65
2024/03/18 07:41:01;;;;;;;10.45;6.78;;;8.30;99.90;;;;;;5081992;28;20036;-62
2024/03/18 07:43:47;;;;;;;10.45;6.03;;;8.30;99.90;;;;;;5083629;28;20036;-62
2024/03/18 07:46:33;;;;;;;9.63;6.38;;;8.40;99.90;;;;;;5083843;28;20040;-63
2024/03/18 07:49:19;;;;;;;11.55;7.25;;;8.40;99.90;;;;;;5082962;28;20032;-61
2024/03/18 07:52:05;;;;;;;11.27;6.95;;;8.40;99.90;;;;;;5082217;28;20036;-60
2024/03/18 07:54:52;;;;;;;11.07;6.63;;;8.40;99.90;;;;;;5081746;28;20032;-60
2024/03/18 07:57:41;;;;;;;11.70;5.33;;;8.40;99.90;;;;;;5087114;28;20059;-62
2024/03/18 08:00:26;;;;;;;11.35;5.53;;;8.40;99.90;;;;;;5081771;28;20420;-61
2024/03/18 08:03:12;;;;;;;9.70;5.18;;;8.40;99.90;;;;;;5084950;28;20080;-64
2024/03/18 08:05:58;;;;;;;9.20;5.32;;;8.40;99.90;;;;;;5082903;28;20590;-62
2024/03/18 08:08:44;;;;;;;10.65;5.07;;;8.40;99.90;;;;;;5082659;28;20034;-62
2024/03/18 08:11:30;;;;;;;6.73;4.47;;;8.40;99.90;;;;;;5083843;28;20032;-62
2024/03/18 08:14:19;;;;;;;7.10;3.92;;;8.50;99.90;;;;;;5083547;28;20844;-61
2024/03/18 08:17:05;;;;;;;8.52;4.68;;;8.40;99.90;;;;;;5083355;28;20040;-62
2024/03/18 08:19:51;;;;;;;8.93;4.70;;;8.40;99.90;;;;;;5084805;28;20040;-62
2024/03/18 08:22:37;;;;;;;8.03;4.43;;;8.50;99.90;;;;;;5085083;28;20043;-62
2024/03/18 08:25:23;;;;;;;7.68;3.47;;;8.40;99.90;;;;;;5079607;28;20068;-61
2024/03/18 08:28:09;;;;;;;8.13;4.67;;;8.50;99.90;;;;;;5082236;28;20036;-61
2024/03/18 08:30:56;;;;;;;10.27;5.07;;;8.50;99.90;;;;;;5090297;28;20285;-61
2024/03/18 08:33:42;;;;;;;;;;;8.50;99.90;;;;;;5083227;28;20074;-62
2024/03/18 08:36:28;;;;;;;6.95;3.42;;;8.50;99.90;;;;;;5081857;28;19915;-62
2024/03/18 08:39:14;;;;;;;7.45;3.97;;;8.50;99.90;;;;;;5083152;28;20032;-62
2024/03/18 08:42:00;;;;;;;8.70;4.18;;;8.60;99.90;;;;;;5079801;28;20084;-62
2024/03/18 08:44:49;;;;;;;7.90;3.97;;;8.60;99.90;;;;;;5096610;27;20072;-61
2024/03/18 08:47:35;;;;;;;14.65;4.53;;;8.60;99.90;;;;;;5078543;28;20032;-61
2024/03/18 08:50:21;;;;;;;7.03;4.15;;;8.60;99.90;;;;;;5085419;28;20038;-61
2024/03/18 08:53:07;;;;;;;8.15;4.28;;;8.50;99.90;;;;;;5083817;28;20432;-61
2024/03/18 08:55:54;;;;;;;7.60;3.80;;;8.50;99.90;;;;;;5086411;28;20126;-61
2024/03/18 08:58:41;;;;;;;5.53;3.45;;;8.50;99.90;;;;;;5083565;28;20055;-61
2024/03/18 09:01:27;;;;;;;5.93;3.97;;;8.50;99.90;;;;;;5080407;28;20055;-61
2024/03/18 09:04:12;;;;;;;8.07;3.38;;;8.60;99.90;;;;;;5083107;28;20028;-61
2024/03/18 09:06:58;;;;;;;7.25;2.92;;;8.70;99.90;;;;;;5082126;28;20134;-61
2024/03/18 09:09:44;;;;;;;6.25;3.17;;;8.80;99.90;;;;;;5080055;28;20036;-61
2024/03/18 09:12:30;;;;;;;5.15;2.72;;;8.90;99.90;;;;;;5083247;28;20039;-61
2024/03/18 09:15:16;;;;;;;5.40;3.22;;;9.00;99.90;;;;;;5084989;28;20047;-60
2024/03/18 09:18:02;;;;;;;5.80;3.42;;;9.10;99.90;;;;;;5083456;28;20068;-61
2024/03/18 09:20:48;;;;;;;4.73;2.70;;;9.10;99.90;;;;;;5082125;28;20040;-61
2024/03/18 09:23:34;;;;;;;3.40;2.00;;;9.10;99.90;;;;;;5083029;28;20154;-61
2024/03/18 09:26:20;;;;;;;2.22;1.60;;;9.20;99.90;;;;;;5082040;28;20071;-61
2024/03/18 09:29:07;;;;;;;3.30;2.00;;;9.20;99.90;;;;;;5082342;28;20036;-61
2024/03/18 09:31:52;;;;;;;4.80;1.77;;;9.20;99.90;;;;;;5082102;28;20615;-61
2024/03/18 09:34:39;;;;;;;3.20;1.88;;;9.30;99.90;;;;;;5080590;28;20036;-61
2024/03/18 09:37:28;;;;;;;2.10;1.58;;;9.30;99.90;;;;;;5082043;28;20028;-61
2024/03/18 09:40:14;;;;;;;4.65;1.90;;;9.30;99.90;;;;;;5082174;28;20032;-60
2024/03/18 09:43:00;;;;;;;1.83;1.42;;;9.20;99.90;;;;;;5081640;28;20039;-61
2024/03/18 09:45:46;;;;;;;1.98;1.20;;;9.30;99.90;;;;;;5079517;28;20081;-61
2024/03/18 09:48:32;;;;;;;1.70;1.00;;;9.30;99.90;;;;;;5082766;28;20587;-61
2024/03/18 09:51:18;;;;;;;1.30;0.85;;;9.40;99.90;;;;;;5080623;28;20040;-61
2024/03/18 09:54:10;;;;;;;3.80;1.00;;;9.30;99.90;;;;;;5083044;28;20043;-61
2024/03/18 09:57:01;;;;;;;1.60;0.90;;;9.40;99.90;;;;;;5079896;28;20044;-61
2024/03/18 09:59:50;;;;;;;7.25;1.20;;;9.40;99.90;;;;;;5081385;28;20063;-61
2024/03/18 10:02:36;;;;;;;1.63;0.70;;;9.50;99.90;;;;;;5082219;28;20044;-61
2024/03/18 10:05:23;;;;;;;2.07;0.80;;;9.50;99.90;;;;;;5083512;28;20600;-61
2024/03/18 10:08:13;;;;;;;1.35;0.80;;;9.60;99.90;;;;;;5082616;28;20433;-61
2024/03/18 10:10:58;;;;;;;1.30;0.77;;;9.70;99.90;;;;;;5080939;28;20131;-61
2024/03/18 10:13:44;;;;;;;0.90;0.70;;;9.70;99.90;;;;;;5080428;28;20071;-61
2024/03/18 10:16:30;;;;;;;0.90;0.60;;;9.80;99.90;;;;;;5081109;28;20042;-62
2024/03/18 10:19:17;;;;;;;2.50;0.80;;;9.90;99.90;;;;;;5081626;28;20068;-61
2024/03/18 10:22:04;;;;;;;;;;;10.00;99.90;;;;;;5083374;28;20122;-61
2024/03/18 10:24:50;;;;;;;0.93;0.57;;;10.00;99.90;;;;;;5081640;28;20054;-61
2024/03/18 10:27:36;;;;;;;2.88;0.82;;;10.10;99.90;;;;;;5081072;28;20100;-61
2024/03/18 10:30:22;;;;;;;4.03;1.10;;;10.10;99.90;;;;;;5079789;28;20032;-61
2024/03/18 10:33:09;;;;;;;0.90;0.60;;;10.10;99.90;;;;;;5082554;28;20059;-63
2024/03/18 10:35:59;;;;;;;2.15;0.93;;;10.10;99.90;;;;;;5079771;28;20043;-61
2024/03/18 10:38:54;;;;;;;2.15;0.70;;;10.20;99.90;;;;;;5080372;28;20036;-62
2024/03/18 10:41:41;;;;;;;5.35;0.90;;;10.20;99.90;;;;;;5074422;28;20093;-63
2024/03/18 10:44:30;;;;;;;2.30;1.00;;;10.30;99.90;;;;;;5079362;28;20048;-62
2024/03/18 10:47:18;;;;;;;2.53;1.10;;;10.40;99.90;;;;;;5076907;28;20293;-63
2024/03/18 10:50:04;;;;;;;2.38;1.48;;;10.40;99.90;;;;;;5082772;28;20058;-63
2024/03/18 10:52:51;;;;;;;3.58;2.28;;;10.40;99.90;;;;;;5079904;28;20066;-62
2024/03/18 10:55:39;;;;;;;3.95;2.17;;;10.30;99.90;;;;;;5081693;28;20063;-62
2024/03/18 10:58:27;;;;;;;4.78;2.30;;;10.20;99.90;;;;;;5080081;28;20032;-62
2024/03/18 11:01:13;;;;;;;3.42;2.30;;;10.20;99.90;;;;;;5079466;28;20032;-63
2024/03/18 11:03:59;;;;;;;3.70;2.17;;;10.20;99.90;;;;;;5084068;28;20040;-62
2024/03/18 11:06:48;;;;;;;6.82;2.35;;;10.20;99.90;;;;;;5077601;28;20040;-63
2024/03/18 11:09:38;;;;;;;3.47;2.28;;;10.30;99.90;;;;;;5081188;28;20428;-62
2024/03/18 11:12:34;;;;;;;4.13;2.53;;;10.30;99.90;;;;;;5081245;28;20020;-63
2024/03/18 11:15:20;;;;;;;3.88;2.67;;;10.20;99.90;;;;;;5079606;28;20089;-63
2024/03/18 11:18:07;;;;;;;3.58;2.65;;;10.20;99.90;;;;;;5080096;28;20035;-63
2024/03/18 11:20:55;;;;;;;3.03;2.45;;;10.20;99.90;;;;;;5079203;28;20047;-63
2024/03/18 11:23:41;;;;;;;3.60;2.45;;;10.20;99.90;;;;;;5081443;28;20035;-63
2024/03/18 11:26:27;;;;;;;4.60;2.60;;;10.20;99.90;;;;;;5078075;28;20055;-63
2024/03/18 11:29:15;;;;;;;5.43;2.40;;;10.20;99.90;;;;;;5064828;28;20024;-61
2024/03/18 11:32:01;;;;;;;3.72;2.35;;;10.20;99.90;;;;;;5080826;28;20067;-63
2024/03/18 11:34:57;;;;;;;5.15;2.60;;;10.20;99.90;;;;;;5077069;28;20036;-62
2024/03/18 11:37:44;;;;;;;3.90;2.30;;;10.20;99.90;;;;;;5083832;28;20123;-63
2024/03/18 11:40:39;;;;;;;5.55;1.77;;;10.20;99.90;;;;;;5080810;28;20709;-64
2024/03/18 11:43:25;;;;;;;2.85;1.73;;;10.30;99.90;;;;;;5080762;28;20135;-64
2024/03/18 11:46:15;;;;;;;4.10;2.38;;;10.30;99.90;;;;;;5077924;28;20043;-63
2024/03/18 11:49:03;;;;;;;5.38;1.65;;;10.30;99.90;;;;;;5073906;28;20473;-63
2024/03/18 11:51:49;;;;;;;2.58;1.40;;;10.20;99.90;;;;;;5076097;28;20074;-63
2024/03/18 11:54:37;;;;;;;4.45;1.67;;;10.30;99.90;;;;;;5064835;28;20030;-64
2024/03/18 11:57:23;;;;;;;3.75;1.38;;;10.30;99.90;;;;;;5079939;28;20044;-64
2024/03/18 12:00:11;;;;;;;5.00;2.10;;;10.30;99.90;;;;;;5080444;28;20655;-64
2024/03/18 12:02:57;;;;;;;3.72;2.58;;;10.20;99.90;;;;;;5081907;28;20052;-63
2024/03/18 12:05:45;;;;;;;4.10;2.63;;;10.20;99.90;;;;;;5078057;28;20491;-63
2024/03/18 12:08:32;;;;;;;2.67;2.30;;;10.20;99.90;;;;;;5081834;28;20042;-63
2024/03/18 12:11:18;;;;;;;4.82;2.80;;;10.10;99.90;;;;;;5079578;28;20032;-63
2024/03/18 12:14:04;;;;;;;5.75;3.45;;;10.20;99.90;;;;;;5083392;28;20028;-64
2024/03/18 12:16:54;;;;;;;4.53;3.25;;;10.20;99.90;;;;;;5084036;28;20039;-64
2024/03/18 12:19:51;;;;;;;4.90;3.30;;;10.40;99.90;;;;;;5083920;28;20043;-64
2024/03/18 12:22:37;;;;;;;6.27;4.50;;;10.60;99.90;;;;;;5085040;28;20032;-65
2024/03/18 12:31:43;;;;;;;9.98;4.78;;;10.60;99.90;;;;;;5078661;28;20024;-63
2024/03/18 12:34:29;;;;;;;9.68;4.38;;;10.70;99.90;;;;;;5069928;28;20835;-63
2024/03/18 12:37:15;;;;;;;6.18;3.95;;;10.90;99.90;;;;;;5079431;28;20115;-63
2024/03/18 12:40:04;;;;;;;6.57;3.33;;;11.00;99.90;;;;;;5070043;28;20833;-63
2024/03/18 12:42:52;;;;;;;5.68;3.67;;;11.00;99.90;;;;;;5070802;28;20035;-63
2024/03/18 12:45:39;;;;;;;6.63;3.80;;;11.20;99.90;;;;;;5082496;28;20044;-63
2024/03/18 12:48:25;;;;;;;;;;;11.20;99.90;;;;;;5069833;28;20036;-63
2024/03/18 12:51:18;;;;;;;3.80;2.33;;;11.30;99.90;;;;;;5083143;28;19936;-63
2024/03/18 12:54:07;;;;;;;2.78;1.90;;;11.60;99.90;;;;;;5084932;28;20844;-63
2024/03/18 12:56:53;;;;;;;2.80;2.08;;;11.70;99.90;;;;;;5082357;28;20036;-64
2024/03/18 12:59:39;;;;;;;3.00;1.38;;;11.80;99.90;;;;;;5084335;28;20122;-64
2024/03/18 13:02:26;;;;;;;3.38;1.33;;;11.80;99.90;;;;;;5066016;28;20040;-64
2024/03/18 13:05:12;;;;;;;2.15;1.05;;;11.80;99.90;;;;;;5081837;28;20077;-63
2024/03/18 13:07:59;;;;;;;3.25;1.10;;;11.90;99.90;;;;;;5082116;28;20038;-64
2024/03/18 13:10:46;;;;;;;;;;;11.90;99.90;;;;;;5082490;28;20401;-63
2024/03/18 13:13:35;;;;;;;5.28;1.00;;;12.00;99.90;;;;;;5084444;28;19912;-63
2024/03/18 13:16:23;;;;;;;2.22;1.08;;;12.10;99.90;;;;;;5080638;28;20048;-64
2024/03/18 13:19:09;;;;;;;3.35;1.10;;;12.20;99.90;;;;;;5084768;28;20100;-64
2024/03/18 13:21:54;;;;;;;2.90;0.90;;;12.20;99.90;;;;;;5084147;28;20067;-64
2024/03/18 13:24:40;;;;;;;4.03;0.90;;;12.20;99.90;;;;;;5084808;28;20081;-63
2024/03/18 13:27:26;;;;;;;2.90;0.90;;;12.20;99.90;;;;;;5080757;28;20424;-64
2024/03/18 13:30:12;;;;;;;1.35;0.70;;;12.20;99.90;;;;;;5079842;28;20020;-64
2024/03/18 13:32:58;;;;;;;1.88;0.93;;;12.20;99.90;;;;;;5084492;28;20024;-64
2024/03/18 13:35:46;;;;;;;5.60;1.00;;;12.20;99.90;;;;;;5082659;28;20020;-64
2024/03/18 13:38:32;;;;;;;2.90;0.95;;;12.30;99.90;;;;;;5082343;28;20039;-64
2024/03/18 13:41:21;;;;;;;2.83;1.10;;;12.40;99.90;;;;;;5080324;28;20574;-64
2024/03/18 13:44:09;;;;;;;1.65;0.98;;;12.40;99.90;;;;;;5082304;28;20056;-64
2024/03/18 13:46:55;;;;;;;5.43;1.08;;;12.20;99.90;;;;;;5082161;28;20028;-64
2024/03/18 13:49:41;;;;;;;2.40;1.08;;;12.40;99.90;;;;;;5080619;28;20063;-64
2024/03/18 13:52:27;;;;;;;1.10;0.88;;;12.40;99.90;;;;;;5082388;28;20482;-64
2024/03/18 13:55:13;;;;;;;2.50;1.13;;;12.50;99.90;;;;;;5081198;28;20051;-64
2024/03/18 13:57:59;;;;;;;2.42;1.40;;;12.60;99.90;;;;;;5082218;28;20286;-64
2024/03/18 14:00:45;;;;;;;5.38;1.27;;;12.50;99.90;;;;;;5081714;28;20040;-64
2024/03/18 14:03:31;;;;;;;2.25;1.30;;;12.40;99.90;;;;;;5082282;28;20035;-64
2024/03/18 14:06:17;;;;;;;2.85;1.25;;;12.40;99.90;;;;;;5080667;28;20063;-64
2024/03/18 14:09:03;;;;;;;1.73;1.30;;;12.40;99.90;;;;;;5082049;28;20023;-64
2024/03/18 14:11:49;;;;;;;1.83;1.20;;;12.40;99.90;;;;;;5082287;28;20754;-64
2024/03/18 14:14:35;;;;;;;6.68;1.35;;;12.60;99.90;;;;;;5079758;28;20528;-64
2024/03/18 14:17:21;;;;;;;3.10;1.48;;;12.70;99.90;;;;;;5080935;28;20035;-64
2024/03/18 14:20:10;;;;;;;3.92;1.98;;;12.70;99.90;;;;;;5062534;28;20455;-63
2024/03/18 14:22:57;;;;;;;2.72;1.45;;;12.50;99.90;;;;;;5081461;28;20024;-63
2024/03/18 14:25:43;;;;;;;3.33;1.80;;;12.30;99.90;;;;;;5079880;28;20040;-63
2024/03/18 14:28:29;;;;;;;3.15;1.98;;;12.20;99.90;;;;;;5077345;28;20554;-65
2024/03/18 14:31:15;;;;;;;4.05;1.80;;;12.20;99.90;;;;;;5076600;28;20028;-64
2024/03/18 14:34:02;;;;;;;2.83;1.48;;;12.40;99.90;;;;;;5080737;28;20397;-63
2024/03/18 14:36:48;;;;;;;4.72;1.65;;;12.40;99.90;;;;;;5080115;28;20664;-63